createdAt,value
2023-04-27T00:01:37.092Z,73.69
2023-04-27T00:04:04.049Z,73.69
2023-04-27T00:06:32.140Z,73.71
2023-04-27T00:08:58.964Z,73.81
2023-04-27T00:11:25.834Z,73.74
2023-04-27T00:13:52.590Z,73.90
2023-04-27T00:16:19.061Z,73.85
2023-04-27T00:18:46.289Z,73.85
2023-04-27T00:21:13.188Z,74.09
2023-04-27T00:23:39.663Z,73.94
2023-04-27T00:26:06.206Z,74.20
2023-04-27T00:28:32.940Z,74.22
2023-04-27T00:30:59.562Z,74.38
2023-04-27T00:33:27.283Z,74.70
2023-04-27T00:35:54.327Z,74.74
2023-04-27T00:38:21.067Z,74.91
2023-04-27T00:40:47.579Z,74.90
2023-04-27T00:43:14.265Z,75.00
2023-04-27T00:45:45.143Z,75.03
2023-04-27T00:48:12.913Z,74.97
2023-04-27T00:50:40.618Z,75.08
2023-04-27T00:53:07.665Z,75.10
2023-04-27T00:55:34.254Z,74.94
2023-04-27T00:58:02.082Z,74.93
2023-04-27T01:00:28.751Z,74.85
2023-04-27T01:02:55.661Z,75.14
2023-04-27T01:05:25.303Z,75.19
2023-04-27T01:07:52.018Z,75.60
2023-04-27T01:10:19.841Z,75.52
2023-04-27T01:12:47.407Z,75.14
2023-04-27T01:15:14.040Z,75.14
2023-04-27T01:17:41.200Z,75.00
2023-04-27T01:20:11.386Z,75.43
2023-04-27T01:22:39.098Z,75.39
2023-04-27T01:25:07.503Z,75.47
2023-04-27T01:27:34.339Z,75.55
2023-04-27T01:30:00.838Z,75.89
2023-04-27T01:32:27.363Z,76.29
2023-04-27T01:34:54.756Z,76.35
2023-04-27T01:37:26.003Z,76.24
2023-04-27T01:39:52.539Z,76.30
2023-04-27T01:42:19.557Z,76.35
2023-04-27T01:44:46.170Z,76.45
2023-04-27T01:47:15.879Z,76.16
2023-04-27T01:49:42.975Z,76.30
2023-04-27T01:52:09.521Z,76.30
2023-04-27T01:54:36.110Z,76.61
2023-04-27T01:57:03.144Z,76.43
2023-04-27T01:59:29.806Z,76.26
2023-04-27T02:01:56.430Z,76.29
2023-04-27T02:04:23.641Z,76.65
2023-04-27T02:06:51.634Z,76.38
2023-04-27T02:09:18.092Z,76.15
2023-04-27T02:11:45.096Z,76.06
2023-04-27T02:14:11.777Z,76.11
2023-04-27T02:16:38.370Z,75.89
2023-04-27T02:19:05.122Z,75.91
2023-04-27T02:21:32.185Z,76.51
2023-04-27T02:23:58.791Z,76.78
2023-04-27T02:26:29.192Z,76.99
2023-04-27T02:28:56.550Z,77.05
2023-04-27T02:31:23.740Z,76.95
2023-04-27T02:33:50.842Z,76.97
2023-04-27T02:36:18.058Z,76.91
2023-04-27T02:38:44.630Z,76.98
2023-04-27T02:41:11.461Z,76.98
2023-04-27T02:43:38.122Z,76.64
2023-04-27T02:46:06.064Z,76.53
2023-04-27T02:48:33.107Z,76.72
2023-04-27T02:51:03.450Z,76.59
2023-04-27T02:53:30.150Z,76.55
2023-04-27T02:55:57.909Z,76.74
2023-04-27T02:58:24.759Z,76.85
2023-04-27T03:00:55.688Z,76.60
2023-04-27T03:03:23.295Z,76.64
2023-04-27T03:05:49.971Z,76.72
2023-04-27T03:08:16.473Z,76.79
2023-04-27T03:10:43.266Z,76.88
2023-04-27T03:13:10.086Z,76.82
2023-04-27T03:15:36.759Z,76.92
2023-04-27T03:18:03.810Z,77.13
2023-04-27T03:20:30.334Z,77.61
2023-04-27T03:22:56.873Z,77.51
2023-04-27T03:25:24.496Z,77.75
2023-04-27T03:27:50.968Z,77.74
2023-04-27T03:30:17.703Z,77.79
2023-04-27T03:32:46.335Z,78.19
2023-04-27T03:35:14.538Z,78.06
2023-04-27T03:37:41.181Z,78.04
2023-04-27T03:40:08.405Z,78.44
2023-04-27T03:42:35.012Z,78.89
2023-04-27T03:45:01.758Z,78.95
2023-04-27T03:47:28.598Z,79.43
2023-04-27T03:49:55.138Z,79.43
2023-04-27T03:52:25.016Z,79.58
2023-04-27T03:54:51.688Z,79.54
2023-04-27T03:57:18.380Z,79.46
2023-04-27T03:59:45.062Z,79.36
2023-04-27T04:02:11.907Z,79.10
2023-04-27T04:04:39.015Z,79.72
2023-04-27T04:07:05.886Z,79.78
2023-04-27T04:09:32.871Z,80.15
2023-04-27T04:11:59.661Z,80.11
2023-04-27T04:14:27.338Z,80.18
2023-04-27T04:16:55.031Z,80.06
2023-04-27T04:19:22.161Z,80.01
2023-04-27T04:21:48.952Z,80.03
2023-04-27T04:24:15.922Z,80.18
2023-04-27T04:26:43.463Z,80.17
2023-04-27T04:29:11.169Z,80.09
2023-04-27T04:31:38.312Z,80.00
2023-04-27T04:34:05.060Z,79.92
2023-04-27T04:36:31.726Z,79.64
2023-04-27T04:38:58.673Z,79.43
2023-04-27T04:41:25.436Z,79.39
2023-04-27T04:43:52.140Z,79.49
2023-04-27T04:46:20.096Z,79.29
2023-04-27T04:48:46.781Z,79.04
2023-04-27T04:51:13.564Z,78.94
2023-04-27T04:53:40.406Z,78.82
2023-04-27T04:56:11.555Z,78.92
2023-04-27T04:58:38.636Z,78.70
2023-04-27T05:01:06.291Z,78.33
2023-04-27T05:03:32.834Z,78.28
2023-04-27T05:05:59.560Z,78.14
2023-04-27T05:08:26.360Z,77.62
2023-04-27T05:10:55.215Z,77.40
2023-04-27T05:13:21.945Z,77.33
2023-04-27T05:15:48.834Z,77.15
2023-04-27T05:18:15.520Z,76.76
2023-04-27T05:20:42.330Z,76.43
2023-04-27T05:23:09.237Z,76.07
2023-04-27T05:25:45.195Z,75.98
2023-04-27T05:28:12.225Z,75.93
2023-04-27T05:30:39.011Z,75.34
2023-04-27T05:33:05.886Z,75.13
2023-04-27T05:35:33.869Z,75.22
2023-04-27T05:38:00.994Z,75.04
2023-04-27T05:40:27.798Z,74.67
2023-04-27T05:42:54.522Z,74.09
2023-04-27T05:45:23.911Z,74.27
2023-04-27T05:47:50.500Z,73.99
2023-04-27T05:50:17.295Z,73.64
2023-04-27T05:52:44.115Z,73.32
2023-04-27T05:55:10.798Z,73.57
2023-04-27T05:57:39.097Z,73.19
2023-04-27T06:00:10.049Z,72.84
2023-04-27T06:02:40.871Z,72.51
2023-04-27T06:05:08.191Z,72.74
2023-04-27T06:07:37.439Z,72.72
2023-04-27T06:10:05.036Z,72.15
2023-04-27T06:12:31.952Z,72.05
2023-04-27T06:14:58.418Z,72.09
2023-04-27T06:17:25.142Z,71.54
2023-04-27T06:19:51.722Z,70.96
2023-04-27T06:22:18.531Z,71.29
2023-04-27T06:24:46.446Z,71.73
2023-04-27T06:27:13.400Z,71.72
2023-04-27T06:29:40.580Z,71.65
2023-04-27T06:32:07.444Z,71.57
2023-04-27T06:34:34.631Z,71.37
2023-04-27T06:37:01.792Z,71.21
2023-04-27T06:39:28.553Z,71.26
2023-04-27T06:41:55.649Z,71.09
2023-04-27T06:44:24.904Z,70.91
2023-04-27T06:46:51.464Z,70.64
2023-04-27T06:49:18.202Z,70.75
2023-04-27T06:51:46.059Z,71.01
2023-04-27T06:54:13.141Z,70.66
2023-04-27T06:56:39.976Z,70.55
2023-04-27T06:59:10.886Z,70.37
2023-04-27T07:01:38.023Z,70.48
2023-04-27T07:04:05.126Z,70.40
2023-04-27T07:06:32.794Z,69.55
2023-04-27T07:08:59.570Z,69.39
2023-04-27T07:11:26.259Z,67.48
2023-04-27T07:13:52.839Z,67.26
2023-04-27T07:16:20.260Z,67.70
2023-04-27T07:18:47.217Z,68.22
2023-04-27T07:21:13.789Z,67.66
2023-04-27T07:23:43.159Z,66.86
2023-04-27T07:26:09.679Z,66.30
2023-04-27T07:28:37.677Z,66.15
2023-04-27T07:31:05.618Z,65.42
2023-04-27T07:33:32.974Z,66.41
2023-04-27T07:36:00.323Z,65.92
2023-04-27T07:38:28.575Z,66.78
2023-04-27T07:40:57.762Z,65.60
2023-04-27T07:43:25.176Z,65.35
2023-04-27T07:45:52.073Z,63.76
2023-04-27T07:48:19.036Z,64.40
2023-04-27T07:50:46.124Z,63.23
2023-04-27T07:53:13.297Z,64.40
2023-04-27T07:55:45.479Z,64.63
2023-04-27T07:58:12.659Z,63.13
2023-04-27T08:00:39.275Z,62.80
2023-04-27T08:03:07.266Z,63.51
2023-04-27T08:05:34.508Z,63.15
2023-04-27T08:08:01.941Z,62.18
2023-04-27T08:10:28.591Z,62.54
2023-04-27T08:12:55.469Z,62.73
2023-04-27T08:15:22.073Z,59.87
2023-04-27T08:17:48.663Z,59.01
2023-04-27T08:20:15.371Z,59.19
2023-04-27T08:22:42.479Z,59.17
2023-04-27T08:25:09.361Z,60.15
2023-04-27T08:27:39.688Z,59.72
2023-04-27T08:30:07.268Z,60.40
2023-04-27T08:32:34.219Z,60.54
2023-04-27T08:35:00.843Z,60.59
2023-04-27T08:37:27.710Z,60.09
2023-04-27T08:39:54.184Z,59.77
2023-04-27T08:42:21.185Z,57.94
2023-04-27T08:44:47.972Z,56.61
2023-04-27T08:47:14.512Z,57.69
2023-04-27T08:49:41.220Z,58.21
2023-04-27T08:52:15.831Z,56.67
2023-04-27T08:54:45.362Z,57.24
2023-04-27T08:57:13.581Z,58.22
2023-04-27T08:59:41.070Z,58.19
2023-04-27T09:02:19.473Z,58.24
2023-04-27T09:04:47.174Z,56.88
2023-04-27T09:07:15.450Z,57.63
2023-04-27T09:09:43.171Z,58.92
2023-04-27T09:12:20.870Z,59.16
2023-04-27T09:15:05.613Z,55.78
2023-04-27T09:17:33.356Z,56.09
2023-04-27T09:20:12.852Z,54.49
2023-04-27T09:22:47.079Z,54.90
2023-04-27T09:25:24.961Z,55.30
2023-04-27T09:27:51.825Z,55.55
2023-04-27T09:30:19.109Z,55.55
2023-04-27T09:33:04.284Z,55.02
2023-04-27T09:35:32.484Z,55.13
2023-04-27T09:38:00.287Z,55.15
2023-04-27T09:40:33.206Z,55.60
2023-04-27T09:43:03.273Z,56.13
2023-04-27T09:45:30.780Z,56.84
2023-04-27T09:47:57.948Z,57.58
2023-04-27T09:50:25.359Z,59.33
2023-04-27T09:52:51.998Z,59.23
2023-04-27T09:55:26.832Z,59.65
2023-04-27T09:57:59.901Z,59.88
2023-04-27T10:00:45.825Z,60.57
2023-04-27T10:03:26.790Z,61.17
2023-04-27T10:05:59.479Z,61.45
2023-04-27T10:08:26.280Z,61.18
2023-04-27T10:10:55.845Z,61.46
2023-04-27T10:13:26.657Z,61.59
2023-04-27T10:15:53.744Z,61.83
2023-04-27T10:18:30.337Z,62.77
2023-04-27T10:21:09.157Z,61.84
2023-04-27T10:23:46.328Z,62.81
2023-04-27T10:26:13.042Z,62.71
2023-04-27T10:28:40.907Z,63.38
2023-04-27T10:31:11.651Z,62.29
2023-04-27T10:33:45.871Z,62.17
2023-04-27T10:36:15.909Z,60.67
2023-04-27T10:38:42.423Z,60.15
2023-04-27T10:41:14.209Z,59.18
2023-04-27T10:43:40.917Z,59.04
2023-04-27T10:46:16.726Z,59.40
2023-04-27T10:48:44.910Z,59.19
2023-04-27T10:51:17.482Z,58.73
2023-04-27T10:53:44.273Z,58.61
2023-04-27T10:56:12.366Z,58.81
2023-04-27T11:01:09.630Z,58.49
2023-04-27T11:03:37.764Z,58.40
2023-04-27T11:06:06.378Z,58.45
2023-04-27T11:08:36.419Z,57.49
2023-04-27T11:11:05.833Z,57.25
2023-04-27T11:13:33.299Z,57.91
2023-04-27T11:16:04.487Z,56.83
2023-04-27T11:18:36.538Z,57.10
2023-04-27T11:21:09.054Z,56.62
2023-04-27T11:23:38.150Z,55.27
2023-04-27T11:26:17.257Z,53.31
2023-04-27T11:28:58.609Z,53.95
2023-04-27T11:31:26.629Z,55.48
2023-04-27T11:36:24.698Z,54.63
2023-04-27T11:38:57.184Z,55.22
2023-04-27T11:41:36.385Z,53.15
2023-04-27T11:44:08.436Z,53.46
2023-04-27T11:46:40.870Z,54.05
2023-04-27T11:49:08.451Z,53.22
2023-04-27T11:51:38.569Z,52.44
2023-04-27T11:54:06.947Z,53.28
2023-04-27T11:56:39.376Z,51.48
2023-04-27T11:59:17.452Z,51.99
2023-04-27T12:01:44.174Z,50.76
2023-04-27T12:04:10.957Z,50.33
2023-04-27T12:06:38.200Z,49.15
2023-04-27T12:09:04.939Z,48.19
2023-04-27T12:11:32.192Z,51.00
2023-04-27T12:14:00.527Z,48.96
2023-04-27T12:16:28.538Z,48.87
2023-04-27T12:18:56.536Z,49.10
2023-04-27T12:21:25.402Z,50.37
2023-04-27T12:23:52.286Z,48.74
2023-04-27T12:26:20.028Z,48.88
2023-04-27T12:28:49.574Z,49.38
2023-04-27T12:31:19.448Z,49.13
2023-04-27T12:33:48.785Z,49.99
2023-04-27T12:36:16.015Z,50.64
2023-04-27T12:38:43.304Z,50.47
2023-04-27T12:41:10.269Z,50.58
2023-04-27T12:43:37.704Z,49.92
2023-04-27T12:46:04.293Z,50.37
2023-04-27T12:48:32.971Z,48.60
2023-04-27T12:50:59.992Z,49.38
2023-04-27T12:53:27.769Z,47.22
2023-04-27T12:55:54.979Z,46.55
2023-04-27T12:58:21.675Z,47.49
2023-04-27T13:00:48.342Z,46.80
2023-04-27T13:03:15.291Z,48.58
2023-04-27T13:05:42.165Z,48.65
2023-04-27T13:08:08.701Z,47.09
2023-04-27T13:10:36.161Z,47.37
2023-04-27T13:13:03.467Z,47.44
2023-04-27T13:15:30.122Z,46.67
2023-04-27T13:17:58.388Z,46.56
2023-04-27T13:20:25.390Z,45.62
2023-04-27T13:22:52.317Z,46.68
2023-04-27T13:25:19.537Z,46.50
2023-04-27T13:27:46.457Z,47.39
2023-04-27T13:30:14.780Z,47.28
2023-04-27T13:32:41.462Z,48.16
2023-04-27T13:35:08.957Z,48.72
2023-04-27T13:37:35.616Z,49.06
2023-04-27T13:40:02.775Z,48.89
2023-04-27T13:42:29.783Z,49.34
2023-04-27T13:44:56.514Z,48.26
2023-04-27T13:47:23.198Z,49.38
2023-04-27T13:49:50.273Z,48.65
2023-04-27T13:52:16.743Z,49.97
2023-04-27T13:54:43.376Z,49.12
2023-04-27T13:57:10.319Z,49.25
2023-04-27T13:59:36.967Z,48.28
2023-04-27T14:02:03.557Z,48.05
2023-04-27T14:04:30.639Z,48.83
2023-04-27T14:06:57.253Z,48.70
2023-04-27T14:09:26.383Z,49.97
2023-04-27T14:11:57.076Z,49.30
2023-04-27T14:14:24.281Z,49.77
2023-04-27T14:16:53.570Z,48.79
2023-04-27T14:19:21.004Z,48.70
2023-04-27T14:21:49.495Z,46.88
2023-04-27T14:24:16.070Z,47.43
2023-04-27T14:26:43.646Z,47.06
2023-04-27T14:29:11.132Z,48.03
2023-04-27T14:31:38.889Z,47.63
2023-04-27T14:34:06.720Z,48.23
2023-04-27T14:36:34.049Z,47.66
2023-04-27T14:39:01.150Z,47.11
2023-04-27T14:41:28.346Z,47.77
2023-04-27T14:43:56.484Z,46.50
2023-04-27T14:46:23.424Z,46.31
2023-04-27T14:48:50.779Z,45.94
2023-04-27T14:51:17.816Z,46.06
2023-04-27T14:53:44.354Z,46.97
2023-04-27T14:56:12.216Z,47.33
2023-04-27T14:58:40.513Z,46.84
2023-04-27T15:01:07.729Z,47.64
2023-04-27T15:03:34.801Z,48.72
2023-04-27T15:06:02.515Z,49.14
2023-04-27T15:08:31.226Z,49.85
2023-04-27T15:10:59.595Z,49.84
2023-04-27T15:13:27.191Z,49.79
2023-04-27T15:15:55.493Z,50.12
2023-04-27T15:18:23.102Z,50.28
2023-04-27T15:20:59.513Z,50.59
2023-04-27T15:23:27.452Z,50.72
2023-04-27T15:25:57.928Z,50.36
2023-04-27T15:28:25.071Z,50.33
2023-04-27T15:30:51.829Z,50.28
2023-04-27T15:33:19.701Z,49.80
2023-04-27T15:35:47.006Z,50.21
2023-04-27T15:38:15.093Z,49.97
2023-04-27T15:40:41.883Z,50.14
2023-04-27T15:43:08.606Z,50.16
2023-04-27T15:45:35.373Z,49.57
2023-04-27T15:48:02.114Z,49.38
2023-04-27T15:50:29.025Z,49.79
2023-04-27T15:52:55.733Z,49.55
2023-04-27T15:55:22.412Z,50.45
2023-04-27T15:57:49.666Z,49.98
2023-04-27T16:00:21.793Z,49.98
2023-04-27T16:02:52.493Z,50.21
2023-04-27T16:05:19.257Z,49.95
2023-04-27T16:07:45.937Z,50.67
2023-04-27T16:10:13.259Z,50.74
2023-04-27T16:12:40.409Z,50.88
2023-04-27T16:15:10.764Z,50.72
2023-04-27T16:17:38.603Z,50.56
2023-04-27T16:20:06.111Z,50.96
2023-04-27T16:22:37.408Z,51.02
2023-04-27T16:25:09.633Z,51.05
2023-04-27T16:27:37.322Z,51.46
2023-04-27T16:30:06.039Z,51.91
2023-04-27T16:32:34.532Z,51.95
2023-04-27T16:35:02.346Z,52.18
2023-04-27T16:37:29.094Z,52.11
2023-04-27T16:39:59.009Z,52.16
2023-04-27T16:42:25.771Z,51.72
2023-04-27T16:44:52.545Z,51.82
2023-04-27T16:47:19.046Z,52.22
2023-04-27T16:49:45.942Z,52.08
2023-04-27T16:52:12.630Z,51.88
2023-04-27T16:54:39.202Z,52.22
2023-04-27T16:57:07.347Z,52.39
2023-04-27T16:59:34.396Z,52.62
2023-04-27T17:02:09.382Z,52.48
2023-04-27T17:04:43.731Z,52.92
2023-04-27T17:07:10.664Z,52.91
2023-04-27T17:09:37.673Z,52.98
2023-04-27T17:12:10.430Z,53.17
2023-04-27T17:14:38.168Z,53.87
2023-04-27T17:17:05.782Z,53.85
2023-04-27T17:19:32.382Z,54.48
2023-04-27T17:21:59.377Z,53.81
2023-04-27T17:24:25.996Z,54.04
2023-04-27T17:26:52.692Z,54.01
2023-04-27T17:29:20.946Z,54.34
2023-04-27T17:31:48.531Z,54.20
2023-04-27T17:34:15.417Z,55.20
2023-04-27T17:36:42.230Z,55.80
2023-04-27T17:39:08.750Z,55.73
2023-04-27T17:41:37.055Z,56.41
2023-04-27T17:44:04.327Z,56.78
2023-04-27T17:46:31.076Z,56.00
2023-04-27T17:48:58.298Z,57.11
2023-04-27T17:51:25.197Z,57.47
2023-04-27T17:53:51.710Z,58.11
2023-04-27T17:56:18.416Z,58.13
2023-04-27T17:58:45.127Z,58.37
2023-04-27T18:01:12.709Z,58.11
2023-04-27T18:03:41.393Z,58.32
2023-04-27T18:06:08.625Z,58.09
2023-04-27T18:08:35.086Z,58.68
2023-04-27T18:11:01.840Z,58.75
2023-04-27T18:13:31.162Z,58.87
2023-04-27T18:15:58.740Z,58.81
2023-04-27T18:18:26.801Z,59.14
2023-04-27T18:20:53.506Z,59.47
2023-04-27T18:23:20.553Z,59.63
2023-04-27T18:25:47.394Z,60.22
2023-04-27T18:28:14.100Z,60.44
2023-04-27T18:30:40.942Z,60.46
2023-04-27T18:33:07.889Z,60.88
2023-04-27T18:35:34.937Z,61.07
2023-04-27T18:38:02.856Z,61.29
2023-04-27T18:40:30.174Z,61.65
2023-04-27T18:42:57.386Z,61.85
2023-04-27T18:45:24.067Z,61.86
2023-04-27T18:47:51.247Z,62.22
2023-04-27T18:50:18.577Z,62.94
2023-04-27T18:52:45.808Z,62.80
2023-04-27T18:55:13.791Z,62.85
2023-04-27T18:57:40.447Z,62.95
2023-04-27T19:00:08.475Z,62.96
2023-04-27T19:02:35.366Z,62.82
2023-04-27T19:07:34.250Z,63.82
2023-04-27T19:10:00.948Z,64.09
2023-04-27T19:12:27.818Z,64.29
2023-04-27T19:14:54.675Z,64.44
2023-04-27T19:17:21.644Z,64.91
2023-04-27T19:19:48.500Z,65.06
2023-04-27T19:22:15.465Z,65.69
2023-04-27T19:24:42.203Z,65.75
2023-04-27T19:27:10.953Z,65.70
2023-04-27T19:29:55.272Z,65.95
2023-04-27T19:32:26.270Z,66.15
2023-04-27T19:34:55.627Z,66.02
2023-04-27T19:37:23.642Z,66.08
2023-04-27T19:39:50.708Z,66.14
2023-04-27T19:42:17.464Z,66.10
2023-04-27T19:44:44.321Z,66.39
2023-04-27T19:47:11.257Z,66.48
2023-04-27T19:49:38.674Z,67.13
2023-04-27T19:52:06.148Z,67.12
2023-04-27T19:54:33.030Z,66.97
2023-04-27T19:57:00.686Z,67.19
2023-04-27T19:59:27.389Z,67.09
2023-04-27T20:01:53.996Z,67.24
2023-04-27T20:04:22.083Z,67.22
2023-04-27T20:06:52.513Z,67.26
2023-04-27T20:09:19.069Z,67.59
2023-04-27T20:11:45.673Z,67.66
2023-04-27T20:14:12.440Z,67.42
2023-04-27T20:16:39.667Z,67.83
2023-04-27T20:19:06.476Z,68.13
2023-04-27T20:21:33.096Z,67.94
2023-04-27T20:23:59.938Z,68.08
2023-04-27T20:26:26.869Z,68.47
2023-04-27T20:28:53.384Z,68.16
2023-04-27T20:31:20.025Z,68.21
2023-04-27T20:33:47.047Z,68.60
2023-04-27T20:36:18.012Z,68.34
2023-04-27T20:38:45.610Z,68.49
2023-04-27T20:41:12.358Z,69.02
2023-04-27T20:43:39.448Z,68.66
2023-04-27T20:46:13.002Z,68.72
2023-04-27T20:48:40.164Z,69.00
2023-04-27T20:51:06.815Z,68.91
2023-04-27T20:53:33.991Z,69.17
2023-04-27T20:56:00.716Z,69.27
2023-04-27T20:58:27.670Z,69.55
2023-04-27T21:00:54.490Z,70.05
2023-04-27T21:03:21.776Z,70.54
2023-04-27T21:05:51.524Z,70.14
2023-04-27T21:08:18.728Z,70.02
2023-04-27T21:10:45.500Z,70.08
2023-04-27T21:13:12.166Z,69.93
2023-04-27T21:15:38.901Z,70.36
2023-04-27T21:20:33.238Z,70.83
2023-04-27T21:23:00.139Z,70.73
2023-04-27T21:25:26.790Z,70.85
2023-04-27T21:27:53.473Z,70.68
2023-04-27T21:30:20.239Z,70.34
2023-04-27T21:32:46.789Z,70.24
2023-04-27T21:35:13.499Z,70.45
2023-04-27T21:37:40.385Z,70.56
2023-04-27T21:40:07.512Z,70.47
2023-04-27T21:42:34.309Z,70.59
2023-04-27T21:45:02.356Z,70.96
2023-04-27T21:47:28.955Z,70.82
2023-04-27T21:49:55.814Z,71.11
2023-04-27T21:52:22.857Z,71.23
2023-04-27T21:54:49.475Z,71.43
2023-04-27T21:57:17.684Z,71.18
2023-04-27T21:59:45.548Z,71.17
2023-04-27T22:02:12.070Z,71.41
2023-04-27T22:04:39.072Z,71.59
2023-04-27T22:07:07.697Z,71.61
2023-04-27T22:09:37.538Z,71.74
2023-04-27T22:12:04.393Z,71.80
2023-04-27T22:14:31.317Z,72.10
2023-04-27T22:17:00.016Z,72.00
2023-04-27T22:19:27.338Z,72.19
2023-04-27T22:21:54.595Z,72.36
2023-04-27T22:24:21.091Z,72.41
2023-04-27T22:26:50.609Z,72.18
2023-04-27T22:29:17.673Z,72.37
2023-04-27T22:31:44.772Z,72.52
2023-04-27T22:34:12.312Z,72.47
2023-04-27T22:36:39.214Z,72.37
2023-04-27T22:39:06.482Z,72.72
2023-04-27T22:41:33.345Z,72.35
2023-04-27T22:44:00.449Z,72.05
2023-04-27T22:46:27.176Z,72.03
2023-04-27T22:48:53.774Z,72.33
2023-04-27T22:51:21.283Z,72.41
2023-04-27T22:53:48.072Z,72.55
2023-04-27T22:56:14.586Z,72.29
2023-04-27T22:58:41.224Z,72.10
2023-04-27T23:01:07.909Z,72.45
2023-04-27T23:03:34.832Z,72.27
2023-04-27T23:06:01.601Z,71.98
2023-04-27T23:08:28.898Z,72.22
2023-04-27T23:10:56.184Z,72.18
2023-04-27T23:13:26.984Z,72.14
2023-04-27T23:15:56.506Z,72.22
2023-04-27T23:18:24.468Z,72.57
2023-04-27T23:20:55.141Z,72.29
2023-04-27T23:23:21.675Z,72.37
2023-04-27T23:25:48.236Z,72.33
2023-04-27T23:28:14.985Z,72.18
2023-04-27T23:30:41.584Z,72.55
2023-04-27T23:33:08.327Z,72.41
2023-04-27T23:35:35.197Z,72.72
2023-04-27T23:38:01.758Z,72.80
2023-04-27T23:40:28.329Z,72.84
2023-04-27T23:42:55.393Z,73.05
2023-04-27T23:45:21.893Z,73.08
2023-04-27T23:47:48.552Z,73.05
2023-04-27T23:50:15.284Z,72.98
2023-04-27T23:52:42.102Z,72.83
2023-04-27T23:55:08.998Z,73.08
2023-04-27T23:57:35.762Z,73.19
